sensor_id;sensor_type;location;lat;lon;timestamp;P1;durP1;ratioP1;P2;durP2;ratioP2
21152;SDS011;10734;44.792;20.482;2022-11-23T00:00:40;6.93;;;3.63;;
21152;SDS011;10734;44.792;20.482;2022-11-23T00:03:11;6.68;;;3.17;;
21152;SDS011;10734;44.792;20.482;2022-11-23T00:05:41;7.15;;;3.30;;
21152;SDS011;10734;44.792;20.482;2022-11-23T00:08:09;5.00;;;3.08;;
21152;SDS011;10734;44.792;20.482;2022-11-23T00:10:37;5.50;;;3.42;;
21152;SDS011;10734;44.792;20.482;2022-11-23T00:13:04;4.43;;;3.53;;
21152;SDS011;10734;44.792;20.482;2022-11-23T00:15:33;6.15;;;4.18;;
21152;SDS011;10734;44.792;20.482;2022-11-23T00:18:02;5.63;;;3.53;;
21152;SDS011;10734;44.792;20.482;2022-11-23T00:20:30;6.55;;;3.83;;
21152;SDS011;10734;44.792;20.482;2022-11-23T00:22:58;7.85;;;4.00;;
21152;SDS011;10734;44.792;20.482;2022-11-23T00:25:26;5.10;;;3.22;;
21152;SDS011;10734;44.792;20.482;2022-11-23T00:27:54;6.50;;;3.90;;
21152;SDS011;10734;44.792;20.482;2022-11-23T00:30:23;6.28;;;4.32;;
21152;SDS011;10734;44.792;20.482;2022-11-23T00:32:50;8.80;;;4.30;;
21152;SDS011;10734;44.792;20.482;2022-11-23T00:35:18;6.72;;;4.05;;
21152;SDS011;10734;44.792;20.482;2022-11-23T00:37:46;6.95;;;4.30;;
21152;SDS011;10734;44.792;20.482;2022-11-23T00:40:17;7.22;;;4.80;;
21152;SDS011;10734;44.792;20.482;2022-11-23T00:42:46;7.63;;;4.35;;
21152;SDS011;10734;44.792;20.482;2022-11-23T00:45:14;7.30;;;4.00;;
21152;SDS011;10734;44.792;20.482;2022-11-23T00:47:42;9.00;;;4.63;;
21152;SDS011;10734;44.792;20.482;2022-11-23T00:50:10;9.63;;;4.70;;
21152;SDS011;10734;44.792;20.482;2022-11-23T00:52:37;6.78;;;4.55;;
21152;SDS011;10734;44.792;20.482;2022-11-23T00:55:04;10.40;;;4.50;;
21152;SDS011;10734;44.792;20.482;2022-11-23T00:57:33;6.30;;;5.00;;
21152;SDS011;10734;44.792;20.482;2022-11-23T01:00:00;9.35;;;5.05;;
21152;SDS011;10734;44.792;20.482;2022-11-23T01:02:26;8.50;;;4.80;;
21152;SDS011;10734;44.792;20.482;2022-11-23T01:04:54;8.30;;;5.03;;
21152;SDS011;10734;44.792;20.482;2022-11-23T01:07:22;7.65;;;5.22;;
21152;SDS011;10734;44.792;20.482;2022-11-23T01:09:53;10.38;;;5.22;;
21152;SDS011;10734;44.792;20.482;2022-11-23T01:12:21;7.75;;;5.07;;
21152;SDS011;10734;44.792;20.482;2022-11-23T01:14:48;6.82;;;5.03;;
21152;SDS011;10734;44.792;20.482;2022-11-23T01:17:16;9.73;;;4.95;;
21152;SDS011;10734;44.792;20.482;2022-11-23T01:19:44;9.07;;;5.30;;
21152;SDS011;10734;44.792;20.482;2022-11-23T01:22:12;8.20;;;5.05;;
21152;SDS011;10734;44.792;20.482;2022-11-23T01:24:40;10.02;;;5.38;;
21152;SDS011;10734;44.792;20.482;2022-11-23T01:27:08;10.38;;;5.80;;
21152;SDS011;10734;44.792;20.482;2022-11-23T01:29:36;9.38;;;5.70;;
21152;SDS011;10734;44.792;20.482;2022-11-23T01:32:04;9.35;;;5.75;;
21152;SDS011;10734;44.792;20.482;2022-11-23T01:34:31;9.88;;;5.90;;
21152;SDS011;10734;44.792;20.482;2022-11-23T01:36:59;9.93;;;6.28;;
21152;SDS011;10734;44.792;20.482;2022-11-23T01:39:29;8.48;;;5.63;;
21152;SDS011;10734;44.792;20.482;2022-11-23T01:41:59;9.90;;;5.82;;
21152;SDS011;10734;44.792;20.482;2022-11-23T01:44:33;9.73;;;5.97;;
21152;SDS011;10734;44.792;20.482;2022-11-23T01:47:05;8.27;;;6.30;;
21152;SDS011;10734;44.792;20.482;2022-11-23T01:49:42;8.68;;;5.68;;
21152;SDS011;10734;44.792;20.482;2022-11-23T01:52:20;8.80;;;6.00;;
21152;SDS011;10734;44.792;20.482;2022-11-23T01:54:51;10.40;;;7.20;;
21152;SDS011;10734;44.792;20.482;2022-11-23T01:57:23;12.45;;;6.57;;
21152;SDS011;10734;44.792;20.482;2022-11-23T01:59:53;10.77;;;6.45;;
21152;SDS011;10734;44.792;20.482;2022-11-23T02:02:21;10.80;;;6.75;;
21152;SDS011;10734;44.792;20.482;2022-11-23T02:04:48;11.40;;;6.97;;
21152;SDS011;10734;44.792;20.482;2022-11-23T02:07:17;10.68;;;7.20;;
21152;SDS011;10734;44.792;20.482;2022-11-23T02:09:46;12.52;;;6.65;;
21152;SDS011;10734;44.792;20.482;2022-11-23T02:12:13;10.43;;;6.10;;
21152;SDS011;10734;44.792;20.482;2022-11-23T02:14:40;11.75;;;5.97;;
21152;SDS011;10734;44.792;20.482;2022-11-23T02:17:07;9.55;;;6.57;;
21152;SDS011;10734;44.792;20.482;2022-11-23T02:22:31;7.95;;;6.03;;
21152;SDS011;10734;44.792;20.482;2022-11-23T02:25:24;7.15;;;5.72;;
21152;SDS011;10734;44.792;20.482;2022-11-23T02:27:59;13.73;;;6.60;;
21152;SDS011;10734;44.792;20.482;2022-11-23T02:30:27;11.05;;;7.20;;
21152;SDS011;10734;44.792;20.482;2022-11-23T02:32:56;11.15;;;6.65;;
21152;SDS011;10734;44.792;20.482;2022-11-23T02:35:22;10.27;;;6.63;;
21152;SDS011;10734;44.792;20.482;2022-11-23T02:37:49;9.77;;;6.60;;
21152;SDS011;10734;44.792;20.482;2022-11-23T02:40:26;10.10;;;6.80;;
21152;SDS011;10734;44.792;20.482;2022-11-23T02:42:54;9.65;;;6.72;;
21152;SDS011;10734;44.792;20.482;2022-11-23T02:45:26;10.10;;;6.68;;
21152;SDS011;10734;44.792;20.482;2022-11-23T02:48:02;10.15;;;6.75;;
21152;SDS011;10734;44.792;20.482;2022-11-23T02:50:47;10.85;;;6.85;;
21152;SDS011;10734;44.792;20.482;2022-11-23T02:53:15;10.82;;;6.57;;
21152;SDS011;10734;44.792;20.482;2022-11-23T02:55:41;10.90;;;6.68;;
21152;SDS011;10734;44.792;20.482;2022-11-23T02:58:08;11.60;;;7.28;;
21152;SDS011;10734;44.792;20.482;2022-11-23T03:00:35;11.30;;;6.45;;
21152;SDS011;10734;44.792;20.482;2022-11-23T03:03:02;12.93;;;7.22;;
21152;SDS011;10734;44.792;20.482;2022-11-23T03:05:29;10.13;;;7.05;;
21152;SDS011;10734;44.792;20.482;2022-11-23T03:07:56;11.57;;;6.97;;
21152;SDS011;10734;44.792;20.482;2022-11-23T03:10:23;9.95;;;6.97;;
21152;SDS011;10734;44.792;20.482;2022-11-23T03:12:52;12.70;;;7.22;;
21152;SDS011;10734;44.792;20.482;2022-11-23T03:15:19;10.63;;;6.63;;
21152;SDS011;10734;44.792;20.482;2022-11-23T03:17:46;10.25;;;7.22;;
21152;SDS011;10734;44.792;20.482;2022-11-23T03:20:13;12.35;;;6.85;;
21152;SDS011;10734;44.792;20.482;2022-11-23T03:22:39;10.60;;;7.15;;
21152;SDS011;10734;44.792;20.482;2022-11-23T03:25:06;10.75;;;7.03;;
21152;SDS011;10734;44.792;20.482;2022-11-23T03:27:33;10.02;;;6.63;;
21152;SDS011;10734;44.792;20.482;2022-11-23T03:30:00;11.35;;;7.55;;
21152;SDS011;10734;44.792;20.482;2022-11-23T03:32:26;14.10;;;8.23;;
21152;SDS011;10734;44.792;20.482;2022-11-23T03:34:53;11.57;;;7.55;;
21152;SDS011;10734;44.792;20.482;2022-11-23T03:37:20;12.95;;;7.88;;
21152;SDS011;10734;44.792;20.482;2022-11-23T03:39:47;13.38;;;8.30;;
21152;SDS011;10734;44.792;20.482;2022-11-23T03:42:13;12.65;;;7.88;;
21152;SDS011;10734;44.792;20.482;2022-11-23T03:44:40;12.82;;;8.35;;
21152;SDS011;10734;44.792;20.482;2022-11-23T03:47:06;13.75;;;7.95;;
21152;SDS011;10734;44.792;20.482;2022-11-23T03:49:33;11.77;;;7.80;;
21152;SDS011;10734;44.792;20.482;2022-11-23T03:51:59;11.90;;;7.70;;
21152;SDS011;10734;44.792;20.482;2022-11-23T03:54:26;14.75;;;7.35;;
21152;SDS011;10734;44.792;20.482;2022-11-23T03:56:52;11.88;;;7.53;;
21152;SDS011;10734;44.792;20.482;2022-11-23T03:59:19;11.20;;;8.20;;
21152;SDS011;10734;44.792;20.482;2022-11-23T04:01:45;11.70;;;7.00;;
21152;SDS011;10734;44.792;20.482;2022-11-23T04:04:12;12.38;;;7.95;;
21152;SDS011;10734;44.792;20.482;2022-11-23T04:06:39;13.48;;;7.75;;
21152;SDS011;10734;44.792;20.482;2022-11-23T04:09:05;10.70;;;7.47;;
21152;SDS011;10734;44.792;20.482;2022-11-23T04:11:32;11.90;;;8.20;;
21152;SDS011;10734;44.792;20.482;2022-11-23T04:13:59;12.93;;;7.95;;
21152;SDS011;10734;44.792;20.482;2022-11-23T04:16:25;12.70;;;7.10;;
21152;SDS011;10734;44.792;20.482;2022-11-23T04:18:52;11.70;;;7.80;;
21152;SDS011;10734;44.792;20.482;2022-11-23T04:21:19;13.43;;;7.57;;
21152;SDS011;10734;44.792;20.482;2022-11-23T04:23:45;11.18;;;7.25;;
21152;SDS011;10734;44.792;20.482;2022-11-23T04:26:12;11.43;;;7.35;;
21152;SDS011;10734;44.792;20.482;2022-11-23T04:28:39;10.93;;;7.15;;
21152;SDS011;10734;44.792;20.482;2022-11-23T04:31:06;13.27;;;7.75;;
21152;SDS011;10734;44.792;20.482;2022-11-23T04:33:32;13.50;;;8.30;;
21152;SDS011;10734;44.792;20.482;2022-11-23T04:35:59;13.07;;;8.15;;
21152;SDS011;10734;44.792;20.482;2022-11-23T04:38:26;11.80;;;8.00;;
21152;SDS011;10734;44.792;20.482;2022-11-23T04:40:52;15.18;;;7.45;;
21152;SDS011;10734;44.792;20.482;2022-11-23T04:43:19;12.45;;;8.35;;
21152;SDS011;10734;44.792;20.482;2022-11-23T04:45:46;15.23;;;8.50;;
21152;SDS011;10734;44.792;20.482;2022-11-23T04:48:12;12.20;;;7.60;;
21152;SDS011;10734;44.792;20.482;2022-11-23T04:50:39;11.93;;;8.18;;
21152;SDS011;10734;44.792;20.482;2022-11-23T04:53:10;12.63;;;7.20;;
21152;SDS011;10734;44.792;20.482;2022-11-23T04:55:37;12.25;;;7.97;;
21152;SDS011;10734;44.792;20.482;2022-11-23T04:58:04;10.65;;;7.35;;
21152;SDS011;10734;44.792;20.482;2022-11-23T05:00:30;11.18;;;7.15;;
21152;SDS011;10734;44.792;20.482;2022-11-23T05:02:58;16.00;;;7.70;;
21152;SDS011;10734;44.792;20.482;2022-11-23T05:05:26;15.82;;;7.78;;
21152;SDS011;10734;44.792;20.482;2022-11-23T05:07:52;12.82;;;8.38;;
21152;SDS011;10734;44.792;20.482;2022-11-23T05:10:19;14.27;;;8.05;;
21152;SDS011;10734;44.792;20.482;2022-11-23T05:12:46;11.85;;;7.85;;
21152;SDS011;10734;44.792;20.482;2022-11-23T05:15:13;11.93;;;8.10;;
21152;SDS011;10734;44.792;20.482;2022-11-23T05:17:40;16.13;;;8.40;;
21152;SDS011;10734;44.792;20.482;2022-11-23T05:20:07;13.13;;;8.10;;
21152;SDS011;10734;44.792;20.482;2022-11-23T05:22:34;12.57;;;8.13;;
21152;SDS011;10734;44.792;20.482;2022-11-23T05:25:01;14.18;;;8.35;;
21152;SDS011;10734;44.792;20.482;2022-11-23T05:27:28;10.63;;;7.30;;
21152;SDS011;10734;44.792;20.482;2022-11-23T05:29:54;12.75;;;8.05;;
21152;SDS011;10734;44.792;20.482;2022-11-23T05:32:21;13.68;;;8.38;;
21152;SDS011;10734;44.792;20.482;2022-11-23T05:34:48;15.95;;;9.90;;
21152;SDS011;10734;44.792;20.482;2022-11-23T05:37:15;12.75;;;8.45;;
21152;SDS011;10734;44.792;20.482;2022-11-23T05:39:42;16.02;;;9.60;;
21152;SDS011;10734;44.792;20.482;2022-11-23T05:42:08;13.90;;;8.88;;
21152;SDS011;10734;44.792;20.482;2022-11-23T05:44:35;15.02;;;9.50;;
21152;SDS011;10734;44.792;20.482;2022-11-23T05:47:02;16.60;;;9.55;;
21152;SDS011;10734;44.792;20.482;2022-11-23T05:49:29;15.63;;;9.63;;
21152;SDS011;10734;44.792;20.482;2022-11-23T05:51:56;14.88;;;9.15;;
21152;SDS011;10734;44.792;20.482;2022-11-23T05:54:22;17.52;;;9.20;;
21152;SDS011;10734;44.792;20.482;2022-11-23T05:56:49;15.18;;;9.15;;
21152;SDS011;10734;44.792;20.482;2022-11-23T05:59:16;13.63;;;9.15;;
21152;SDS011;10734;44.792;20.482;2022-11-23T06:01:42;14.00;;;9.27;;
21152;SDS011;10734;44.792;20.482;2022-11-23T06:04:09;16.33;;;9.68;;
21152;SDS011;10734;44.792;20.482;2022-11-23T06:06:36;16.63;;;9.95;;
21152;SDS011;10734;44.792;20.482;2022-11-23T06:09:03;21.13;;;10.15;;
21152;SDS011;10734;44.792;20.482;2022-11-23T06:11:30;18.38;;;11.48;;
21152;SDS011;10734;44.792;20.482;2022-11-23T06:13:57;16.92;;;11.73;;
21152;SDS011;10734;44.792;20.482;2022-11-23T06:16:24;19.73;;;11.52;;
21152;SDS011;10734;44.792;20.482;2022-11-23T06:18:51;17.88;;;11.32;;
21152;SDS011;10734;44.792;20.482;2022-11-23T06:21:18;17.08;;;10.38;;
21152;SDS011;10734;44.792;20.482;2022-11-23T06:23:47;19.48;;;11.23;;
21152;SDS011;10734;44.792;20.482;2022-11-23T06:26:14;18.83;;;11.80;;
21152;SDS011;10734;44.792;20.482;2022-11-23T06:28:41;21.83;;;12.02;;
21152;SDS011;10734;44.792;20.482;2022-11-23T06:31:08;18.85;;;11.63;;
21152;SDS011;10734;44.792;20.482;2022-11-23T06:33:35;22.35;;;12.15;;
21152;SDS011;10734;44.792;20.482;2022-11-23T06:36:03;17.83;;;11.20;;
21152;SDS011;10734;44.792;20.482;2022-11-23T06:38:30;25.50;;;13.07;;
21152;SDS011;10734;44.792;20.482;2022-11-23T06:40:59;21.08;;;12.48;;
21152;SDS011;10734;44.792;20.482;2022-11-23T06:43:27;20.75;;;12.00;;
21152;SDS011;10734;44.792;20.482;2022-11-23T06:45:55;19.60;;;11.85;;
21152;SDS011;10734;44.792;20.482;2022-11-23T06:48:22;18.13;;;11.35;;
21152;SDS011;10734;44.792;20.482;2022-11-23T06:50:49;21.80;;;13.02;;
21152;SDS011;10734;44.792;20.482;2022-11-23T06:53:16;19.83;;;12.48;;
21152;SDS011;10734;44.792;20.482;2022-11-23T06:55:43;25.08;;;14.10;;
21152;SDS011;10734;44.792;20.482;2022-11-23T06:58:09;21.98;;;13.60;;
21152;SDS011;10734;44.792;20.482;2022-11-23T07:00:36;19.85;;;12.48;;
21152;SDS011;10734;44.792;20.482;2022-11-23T07:03:03;17.52;;;11.50;;
21152;SDS011;10734;44.792;20.482;2022-11-23T07:05:30;17.88;;;11.35;;
21152;SDS011;10734;44.792;20.482;2022-11-23T07:07:56;21.13;;;12.60;;
21152;SDS011;10734;44.792;20.482;2022-11-23T07:10:23;23.77;;;12.77;;
21152;SDS011;10734;44.792;20.482;2022-11-23T07:12:51;22.20;;;12.73;;
21152;SDS011;10734;44.792;20.482;2022-11-23T07:15:17;20.30;;;12.45;;
21152;SDS011;10734;44.792;20.482;2022-11-23T07:17:44;19.95;;;11.88;;
21152;SDS011;10734;44.792;20.482;2022-11-23T07:20:11;19.20;;;11.20;;
21152;SDS011;10734;44.792;20.482;2022-11-23T07:22:38;23.88;;;12.85;;
21152;SDS011;10734;44.792;20.482;2022-11-23T07:25:05;23.30;;;12.23;;
21152;SDS011;10734;44.792;20.482;2022-11-23T07:27:32;21.05;;;11.93;;
21152;SDS011;10734;44.792;20.482;2022-11-23T07:29:59;20.30;;;11.70;;
21152;SDS011;10734;44.792;20.482;2022-11-23T07:32:25;19.75;;;11.10;;
21152;SDS011;10734;44.792;20.482;2022-11-23T07:34:52;14.75;;;8.77;;
21152;SDS011;10734;44.792;20.482;2022-11-23T07:37:19;15.60;;;10.05;;
21152;SDS011;10734;44.792;20.482;2022-11-23T07:39:46;20.70;;;10.05;;
21152;SDS011;10734;44.792;20.482;2022-11-23T07:42:22;14.10;;;8.98;;
21152;SDS011;10734;44.792;20.482;2022-11-23T07:44:59;15.75;;;9.05;;
21152;SDS011;10734;44.792;20.482;2022-11-23T07:47:25;13.63;;;8.45;;
21152;SDS011;10734;44.792;20.482;2022-11-23T07:49:52;14.82;;;8.90;;
21152;SDS011;10734;44.792;20.482;2022-11-23T07:52:19;13.65;;;8.73;;
21152;SDS011;10734;44.792;20.482;2022-11-23T07:54:45;11.80;;;7.88;;
21152;SDS011;10734;44.792;20.482;2022-11-23T07:57:12;17.08;;;9.02;;
21152;SDS011;10734;44.792;20.482;2022-11-23T07:59:39;14.13;;;9.40;;
21152;SDS011;10734;44.792;20.482;2022-11-23T08:02:08;17.13;;;9.10;;
21152;SDS011;10734;44.792;20.482;2022-11-23T08:04:36;12.07;;;7.85;;
21152;SDS011;10734;44.792;20.482;2022-11-23T08:07:02;18.63;;;9.30;;
21152;SDS011;10734;44.792;20.482;2022-11-23T08:09:29;15.23;;;9.43;;
21152;SDS011;10734;44.792;20.482;2022-11-23T08:11:56;16.02;;;9.43;;
21152;SDS011;10734;44.792;20.482;2022-11-23T08:14:22;20.08;;;8.80;;
21152;SDS011;10734;44.792;20.482;2022-11-23T08:16:50;14.20;;;7.88;;
21152;SDS011;10734;44.792;20.482;2022-11-23T08:19:17;14.90;;;7.50;;
21152;SDS011;10734;44.792;20.482;2022-11-23T08:21:44;15.27;;;8.63;;
21152;SDS011;10734;44.792;20.482;2022-11-23T08:24:11;14.05;;;8.35;;
21152;SDS011;10734;44.792;20.482;2022-11-23T08:26:39;13.90;;;8.18;;
21152;SDS011;10734;44.792;20.482;2022-11-23T08:29:08;11.85;;;6.60;;
21152;SDS011;10734;44.792;20.482;2022-11-23T08:31:36;11.20;;;6.18;;
21152;SDS011;10734;44.792;20.482;2022-11-23T08:34:04;9.65;;;5.97;;
21152;SDS011;10734;44.792;20.482;2022-11-23T08:36:32;15.48;;;6.35;;
21152;SDS011;10734;44.792;20.482;2022-11-23T08:39:00;11.82;;;5.90;;
21152;SDS011;10734;44.792;20.482;2022-11-23T08:41:28;12.02;;;5.97;;
21152;SDS011;10734;44.792;20.482;2022-11-23T08:43:54;11.75;;;5.68;;
21152;SDS011;10734;44.792;20.482;2022-11-23T08:46:21;13.85;;;6.70;;
21152;SDS011;10734;44.792;20.482;2022-11-23T08:48:49;12.45;;;6.55;;
21152;SDS011;10734;44.792;20.482;2022-11-23T08:51:16;13.77;;;7.05;;
21152;SDS011;10734;44.792;20.482;2022-11-23T08:53:49;19.55;;;7.90;;
21152;SDS011;10734;44.792;20.482;2022-11-23T08:56:17;11.25;;;6.55;;
21152;SDS011;10734;44.792;20.482;2022-11-23T08:58:44;11.63;;;6.57;;
21152;SDS011;10734;44.792;20.482;2022-11-23T09:01:13;10.77;;;6.30;;
21152;SDS011;10734;44.792;20.482;2022-11-23T09:03:43;11.93;;;6.75;;
21152;SDS011;10734;44.792;20.482;2022-11-23T09:06:10;11.90;;;6.30;;
21152;SDS011;10734;44.792;20.482;2022-11-23T09:08:37;9.05;;;5.55;;
21152;SDS011;10734;44.792;20.482;2022-11-23T09:11:05;10.07;;;5.57;;
21152;SDS011;10734;44.792;20.482;2022-11-23T09:13:34;15.30;;;8.73;;
21152;SDS011;10734;44.792;20.482;2022-11-23T09:16:02;15.60;;;8.70;;
21152;SDS011;10734;44.792;20.482;2022-11-23T09:18:31;13.10;;;7.70;;
21152;SDS011;10734;44.792;20.482;2022-11-23T09:21:02;11.82;;;6.90;;
21152;SDS011;10734;44.792;20.482;2022-11-23T09:23:30;10.05;;;6.38;;
21152;SDS011;10734;44.792;20.482;2022-11-23T09:25:58;11.57;;;7.45;;
21152;SDS011;10734;44.792;20.482;2022-11-23T09:28:29;17.67;;;6.55;;
21152;SDS011;10734;44.792;20.482;2022-11-23T09:30:56;11.82;;;6.30;;
21152;SDS011;10734;44.792;20.482;2022-11-23T09:33:23;9.40;;;5.85;;
21152;SDS011;10734;44.792;20.482;2022-11-23T09:35:58;14.45;;;7.40;;
21152;SDS011;10734;44.792;20.482;2022-11-23T09:38:29;11.80;;;7.50;;
21152;SDS011;10734;44.792;20.482;2022-11-23T09:43:51;13.70;;;8.10;;
21152;SDS011;10734;44.792;20.482;2022-11-23T09:46:30;10.48;;;6.97;;
21152;SDS011;10734;44.792;20.482;2022-11-23T09:49:15;15.48;;;7.63;;
21152;SDS011;10734;44.792;20.482;2022-11-23T09:51:44;17.52;;;8.15;;
21152;SDS011;10734;44.792;20.482;2022-11-23T09:56:44;20.45;;;9.02;;
21152;SDS011;10734;44.792;20.482;2022-11-23T10:02:04;19.15;;;11.55;;
21152;SDS011;10734;44.792;20.482;2022-11-23T10:04:32;16.73;;;12.10;;
21152;SDS011;10734;44.792;20.482;2022-11-23T10:09:59;22.83;;;15.55;;
21152;SDS011;10734;44.792;20.482;2022-11-23T10:15:28;22.00;;;15.13;;
21152;SDS011;10734;44.792;20.482;2022-11-23T10:26:16;25.00;;;17.85;;
21152;SDS011;10734;44.792;20.482;2022-11-23T10:28:45;28.42;;;18.38;;
21152;SDS011;10734;44.792;20.482;2022-11-23T10:31:14;31.17;;;20.52;;
21152;SDS011;10734;44.792;20.482;2022-11-23T10:33:52;27.63;;;18.90;;
21152;SDS011;10734;44.792;20.482;2022-11-23T10:36:42;29.60;;;19.52;;
21152;SDS011;10734;44.792;20.482;2022-11-23T10:39:30;28.48;;;19.98;;
21152;SDS011;10734;44.792;20.482;2022-11-23T10:41:58;30.05;;;19.98;;
21152;SDS011;10734;44.792;20.482;2022-11-23T10:44:29;31.13;;;20.67;;
21152;SDS011;10734;44.792;20.482;2022-11-23T10:49:28;29.73;;;20.02;;
21152;SDS011;10734;44.792;20.482;2022-11-23T10:51:59;26.80;;;18.13;;
21152;SDS011;10734;44.792;20.482;2022-11-23T10:54:35;25.75;;;20.23;;
21152;SDS011;10734;44.792;20.482;2022-11-23T10:59:58;68.40;;;36.08;;
21152;SDS011;10734;44.792;20.482;2022-11-23T11:02:46;39.42;;;23.77;;
21152;SDS011;10734;44.792;20.482;2022-11-23T11:05:24;35.35;;;22.05;;
21152;SDS011;10734;44.792;20.482;2022-11-23T11:08:12;32.30;;;22.60;;
21152;SDS011;10734;44.792;20.482;2022-11-23T11:16:25;28.45;;;20.45;;
21152;SDS011;10734;44.792;20.482;2022-11-23T11:18:59;29.25;;;20.08;;
21152;SDS011;10734;44.792;20.482;2022-11-23T11:21:47;30.40;;;20.90;;
21152;SDS011;10734;44.792;20.482;2022-11-23T11:24:17;30.65;;;21.30;;
21152;SDS011;10734;44.792;20.482;2022-11-23T11:26:51;32.15;;;22.48;;
21152;SDS011;10734;44.792;20.482;2022-11-23T11:29:31;33.50;;;22.33;;
21152;SDS011;10734;44.792;20.482;2022-11-23T11:37:46;30.45;;;20.17;;
21152;SDS011;10734;44.792;20.482;2022-11-23T11:40:17;31.23;;;21.77;;
21152;SDS011;10734;44.792;20.482;2022-11-23T11:45:59;29.95;;;23.27;;
21152;SDS011;10734;44.792;20.482;2022-11-23T11:48:53;27.65;;;20.70;;
21152;SDS011;10734;44.792;20.482;2022-11-23T11:51:26;30.98;;;21.20;;
21152;SDS011;10734;44.792;20.482;2022-11-23T11:57:02;25.83;;;19.85;;
21152;SDS011;10734;44.792;20.482;2022-11-23T11:59:39;31.17;;;19.85;;
21152;SDS011;10734;44.792;20.482;2022-11-23T12:12:53;28.20;;;18.75;;
21152;SDS011;10734;44.792;20.482;2022-11-23T12:15:23;26.85;;;18.45;;
21152;SDS011;10734;44.792;20.482;2022-11-23T12:21:04;22.38;;;17.40;;
21152;SDS011;10734;44.792;20.482;2022-11-23T12:23:46;21.33;;;17.63;;
21152;SDS011;10734;44.792;20.482;2022-11-23T12:26:31;21.83;;;16.48;;
21152;SDS011;10734;44.792;20.482;2022-11-23T12:29:24;18.38;;;15.00;;
21152;SDS011;10734;44.792;20.482;2022-11-23T12:31:56;19.05;;;14.65;;
21152;SDS011;10734;44.792;20.482;2022-11-23T12:34:49;23.63;;;17.90;;
21152;SDS011;10734;44.792;20.482;2022-11-23T12:39:59;22.30;;;17.00;;
21152;SDS011;10734;44.792;20.482;2022-11-23T12:43:01;25.10;;;17.63;;
21152;SDS011;10734;44.792;20.482;2022-11-23T12:45:53;13.70;;;11.88;;
21152;SDS011;10734;44.792;20.482;2022-11-23T12:48:54;16.73;;;12.43;;
21152;SDS011;10734;44.792;20.482;2022-11-23T12:51:33;18.80;;;9.90;;
21152;SDS011;10734;44.792;20.482;2022-11-23T12:59:53;14.10;;;9.73;;
21152;SDS011;10734;44.792;20.482;2022-11-23T13:13:56;12.38;;;7.22;;
21152;SDS011;10734;44.792;20.482;2022-11-23T13:22:17;14.55;;;9.80;;
21152;SDS011;10734;44.792;20.482;2022-11-23T13:32:57;12.15;;;6.13;;
21152;SDS011;10734;44.792;20.482;2022-11-23T13:42:53;8.80;;;5.10;;
21152;SDS011;10734;44.792;20.482;2022-11-23T13:45:24;13.02;;;5.80;;
21152;SDS011;10734;44.792;20.482;2022-11-23T13:50:59;10.38;;;4.50;;
21152;SDS011;10734;44.792;20.482;2022-11-23T13:53:31;7.93;;;4.60;;
21152;SDS011;10734;44.792;20.482;2022-11-23T13:58:53;9.18;;;4.85;;
21152;SDS011;10734;44.792;20.482;2022-11-23T14:04:27;12.32;;;5.32;;
21152;SDS011;10734;44.792;20.482;2022-11-23T14:09:48;8.93;;;5.22;;
21152;SDS011;10734;44.792;20.482;2022-11-23T14:14:56;8.35;;;5.72;;
21152;SDS011;10734;44.792;20.482;2022-11-23T14:17:32;10.80;;;6.15;;
21152;SDS011;10734;44.792;20.482;2022-11-23T14:23:18;9.15;;;5.53;;
21152;SDS011;10734;44.792;20.482;2022-11-23T14:25:54;9.82;;;5.85;;
21152;SDS011;10734;44.792;20.482;2022-11-23T14:33:51;13.63;;;5.50;;
21152;SDS011;10734;44.792;20.482;2022-11-23T14:41:42;10.10;;;4.82;;
21152;SDS011;10734;44.792;20.482;2022-11-23T14:44:12;8.10;;;5.50;;
21152;SDS011;10734;44.792;20.482;2022-11-23T14:49:24;9.75;;;5.40;;
21152;SDS011;10734;44.792;20.482;2022-11-23T14:51:50;9.70;;;5.68;;
21152;SDS011;10734;44.792;20.482;2022-11-23T14:54:17;9.43;;;5.68;;
21152;SDS011;10734;44.792;20.482;2022-11-23T14:56:47;9.77;;;5.53;;
21152;SDS011;10734;44.792;20.482;2022-11-23T14:59:25;7.38;;;5.35;;
21152;SDS011;10734;44.792;20.482;2022-11-23T15:01:53;7.63;;;5.38;;
21152;SDS011;10734;44.792;20.482;2022-11-23T15:04:31;8.60;;;5.57;;
21152;SDS011;10734;44.792;20.482;2022-11-23T15:07:04;7.75;;;5.43;;
21152;SDS011;10734;44.792;20.482;2022-11-23T15:09:44;10.93;;;6.40;;
21152;SDS011;10734;44.792;20.482;2022-11-23T15:12:24;8.25;;;5.88;;
21152;SDS011;10734;44.792;20.482;2022-11-23T15:14:52;12.02;;;6.10;;
21152;SDS011;10734;44.792;20.482;2022-11-23T15:17:20;13.18;;;8.05;;
21152;SDS011;10734;44.792;20.482;2022-11-23T15:19:56;17.25;;;8.68;;
21152;SDS011;10734;44.792;20.482;2022-11-23T15:22:23;21.10;;;6.65;;
21152;SDS011;10734;44.792;20.482;2022-11-23T15:24:50;12.30;;;7.35;;
21152;SDS011;10734;44.792;20.482;2022-11-23T15:27:20;12.70;;;7.03;;
21152;SDS011;10734;44.792;20.482;2022-11-23T15:29:50;14.98;;;8.90;;
21152;SDS011;10734;44.792;20.482;2022-11-23T15:32:21;12.68;;;8.32;;
21152;SDS011;10734;44.792;20.482;2022-11-23T15:35:00;12.95;;;8.05;;
21152;SDS011;10734;44.792;20.482;2022-11-23T15:37:28;18.05;;;8.32;;
21152;SDS011;10734;44.792;20.482;2022-11-23T15:39:54;13.10;;;9.10;;
21152;SDS011;10734;44.792;20.482;2022-11-23T15:42:22;18.38;;;9.70;;
21152;SDS011;10734;44.792;20.482;2022-11-23T15:44:49;17.38;;;9.23;;
21152;SDS011;10734;44.792;20.482;2022-11-23T15:47:21;13.45;;;7.75;;
21152;SDS011;10734;44.792;20.482;2022-11-23T15:49:50;13.68;;;7.80;;
21152;SDS011;10734;44.792;20.482;2022-11-23T15:52:17;17.20;;;5.90;;
21152;SDS011;10734;44.792;20.482;2022-11-23T15:54:44;9.23;;;5.72;;
21152;SDS011;10734;44.792;20.482;2022-11-23T15:57:20;7.70;;;5.97;;
21152;SDS011;10734;44.792;20.482;2022-11-23T15:59:49;8.27;;;5.63;;
21152;SDS011;10734;44.792;20.482;2022-11-23T16:02:24;10.88;;;5.97;;
21152;SDS011;10734;44.792;20.482;2022-11-23T16:05:04;11.20;;;5.53;;
21152;SDS011;10734;44.792;20.482;2022-11-23T16:07:48;9.30;;;4.55;;
21152;SDS011;10734;44.792;20.482;2022-11-23T16:10:22;8.23;;;4.68;;
21152;SDS011;10734;44.792;20.482;2022-11-23T16:12:51;6.72;;;4.82;;
21152;SDS011;10734;44.792;20.482;2022-11-23T16:17:55;8.10;;;5.05;;
21152;SDS011;10734;44.792;20.482;2022-11-23T16:20:22;6.13;;;4.18;;
21152;SDS011;10734;44.792;20.482;2022-11-23T16:22:50;9.02;;;4.13;;
21152;SDS011;10734;44.792;20.482;2022-11-23T16:25:29;9.50;;;4.97;;
21152;SDS011;10734;44.792;20.482;2022-11-23T16:28:23;11.82;;;4.93;;
21152;SDS011;10734;44.792;20.482;2022-11-23T16:30:45;7.63;;;5.07;;
21152;SDS011;10734;44.792;20.482;2022-11-23T16:33:13;8.90;;;5.28;;
21152;SDS011;10734;44.792;20.482;2022-11-23T16:35:40;7.05;;;5.00;;
21152;SDS011;10734;44.792;20.482;2022-11-23T16:38:07;11.00;;;5.32;;
21152;SDS011;10734;44.792;20.482;2022-11-23T16:40:33;9.60;;;5.90;;
21152;SDS011;10734;44.792;20.482;2022-11-23T16:43:00;10.80;;;5.70;;
21152;SDS011;10734;44.792;20.482;2022-11-23T16:45:26;10.40;;;6.43;;
21152;SDS011;10734;44.792;20.482;2022-11-23T16:47:53;9.07;;;5.68;;
21152;SDS011;10734;44.792;20.482;2022-11-23T16:50:21;13.07;;;7.05;;
21152;SDS011;10734;44.792;20.482;2022-11-23T16:52:48;10.55;;;7.03;;